createdAt,value
2018-11-28T05:02:37.819Z,99.90
2018-11-28T05:05:06.917Z,99.90
2018-11-28T05:07:35.153Z,99.90
2018-11-28T05:10:03.824Z,99.90
2018-11-28T05:12:32.061Z,99.90
2018-11-28T05:15:00.267Z,99.90
2018-11-28T05:17:28.512Z,99.90
2018-11-28T05:19:57.218Z,99.90
2018-11-28T05:22:25.428Z,99.90
2018-11-28T05:24:53.862Z,99.90
2018-11-28T05:27:22.073Z,99.90
2018-11-28T05:29:50.287Z,99.90
2018-11-28T05:32:18.491Z,99.90
2018-11-28T05:34:46.707Z,99.90
2018-11-28T05:37:15.957Z,99.90
2018-11-28T05:39:44.516Z,99.90
2018-11-28T05:42:12.714Z,99.90
2018-11-28T05:44:40.900Z,99.90
2018-11-28T05:47:09.127Z,99.90
2018-11-28T05:49:37.354Z,99.90
2018-11-28T05:52:05.566Z,99.90
2018-11-28T05:54:33.816Z,99.90
2018-11-28T05:57:02.026Z,99.90
2018-11-28T05:59:30.236Z,99.90
2018-11-28T06:01:58.447Z,99.90
2018-11-28T06:04:26.656Z,99.90
2018-11-28T06:06:54.864Z,99.90
2018-11-28T06:09:23.072Z,99.90
2018-11-28T06:11:51.264Z,99.90
2018-11-28T06:14:19.454Z,99.90
2018-11-28T06:16:47.663Z,99.90
2018-11-28T06:19:15.892Z,99.90
2018-11-28T06:21:44.115Z,99.90
2018-11-28T06:24:12.362Z,99.90
2018-11-28T06:26:40.572Z,99.90
2018-11-28T06:29:08.797Z,99.90
2018-11-28T06:31:37.076Z,99.90
2018-11-28T06:34:05.553Z,99.90
2018-11-28T06:36:33.767Z,99.90
2018-11-28T06:39:02.021Z,99.90
2018-11-28T06:41:30.235Z,99.90
2018-11-28T06:43:58.444Z,99.90
2018-11-28T06:46:26.668Z,99.90
2018-11-28T06:48:54.923Z,99.90
2018-11-28T06:51:23.186Z,99.90
2018-11-28T06:53:51.408Z,99.90
2018-11-28T06:56:19.633Z,99.90
2018-11-28T06:58:47.859Z,99.90
2018-11-28T07:01:16.083Z,99.90
2018-11-28T07:03:44.298Z,99.90
2018-11-28T07:06:12.509Z,99.90
2018-11-28T07:08:40.722Z,99.90
2018-11-28T07:11:08.940Z,99.90
2018-11-28T07:13:37.132Z,99.90
2018-11-28T07:16:05.428Z,99.90
2018-11-28T07:18:45.177Z,99.90
2018-11-28T07:21:13.406Z,99.90
2018-11-28T07:23:41.601Z,99.90
2018-11-28T07:26:09.805Z,99.90
2018-11-28T07:28:38.057Z,99.90
2018-11-28T07:31:06.256Z,99.90
2018-11-28T07:33:34.440Z,99.90
2018-11-28T07:36:02.663Z,99.90
2018-11-28T07:38:30.848Z,99.90
2018-11-28T07:40:59.077Z,99.90
2018-11-28T07:43:27.319Z,99.90
2018-11-28T07:45:55.572Z,99.90
2018-11-28T07:48:23.771Z,99.90
2018-11-28T07:50:51.977Z,99.90
2018-11-28T07:53:20.195Z,99.90
2018-11-28T07:55:48.396Z,99.90
2018-11-28T07:58:16.765Z,99.90
2018-11-28T08:00:45.028Z,99.90
2018-11-28T08:03:13.222Z,99.90
2018-11-28T08:05:41.443Z,99.90
2018-11-28T08:08:10.496Z,99.90
2018-11-28T08:10:38.733Z,99.90
2018-11-28T08:13:07.556Z,99.90
2018-11-28T08:15:35.751Z,99.90
2018-11-28T08:18:03.940Z,99.90
2018-11-28T08:20:32.164Z,99.90
2018-11-28T08:23:00.368Z,99.90
2018-11-28T08:25:28.569Z,99.90
2018-11-28T08:27:56.930Z,99.90
2018-11-28T08:30:26.108Z,99.90
2018-11-28T08:32:55.703Z,99.90
2018-11-28T08:35:24.099Z,99.90
2018-11-28T08:37:52.457Z,99.90
2018-11-28T08:40:21.756Z,99.90
2018-11-28T08:42:49.999Z,99.90
2018-11-28T08:45:19.774Z,99.90
2018-11-28T08:47:49.152Z,99.90
2018-11-28T08:50:19.952Z,99.90
2018-11-28T08:52:48.180Z,99.90
2018-11-28T08:55:16.351Z,99.90
2018-11-28T08:57:44.615Z,99.90
2018-11-28T09:00:15.337Z,99.90
2018-11-28T09:02:43.950Z,99.90
2018-11-28T09:05:12.912Z,99.90
2018-11-28T09:07:41.176Z,99.90
2018-11-28T09:10:12.457Z,99.90
2018-11-28T09:12:40.641Z,99.90
2018-11-28T09:15:10.659Z,99.90
2018-11-28T09:17:39.014Z,99.90
2018-11-28T09:20:09.443Z,99.90
2018-11-28T09:22:37.721Z,99.90
2018-11-28T09:25:07.349Z,99.90
2018-11-28T09:27:35.573Z,99.90
2018-11-28T09:30:04.960Z,99.90
2018-11-28T09:32:33.204Z,99.90
2018-11-28T09:35:01.413Z,99.90
2018-11-28T09:37:29.635Z,99.90
2018-11-28T09:39:57.841Z,99.90
2018-11-28T09:42:26.085Z,99.90
2018-11-28T09:44:54.289Z,99.90
2018-11-28T09:47:22.504Z,99.90
2018-11-28T09:49:50.783Z,99.90
2018-11-28T09:52:19.013Z,99.90
2018-11-28T09:54:47.270Z,99.90
2018-11-28T09:57:15.649Z,99.90
2018-11-28T09:59:43.869Z,99.90
2018-11-28T10:02:12.152Z,99.90
2018-11-28T10:04:40.381Z,99.90
2018-11-28T10:07:08.612Z,99.90
2018-11-28T10:09:37.935Z,99.90
2018-11-28T10:12:06.786Z,99.90
2018-11-28T10:14:41.548Z,99.90
2018-11-28T10:17:09.780Z,99.90
2018-11-28T10:19:38.044Z,99.90
2018-11-28T10:22:06.406Z,99.90
2018-11-28T10:24:34.672Z,99.90
2018-11-28T10:27:03.068Z,99.90
2018-11-28T10:29:31.292Z,99.90
2018-11-28T10:31:59.555Z,99.90
2018-11-28T10:34:29.586Z,99.90
2018-11-28T10:36:56.479Z,99.90
2018-11-28T10:39:24.670Z,99.90
2018-11-28T10:41:52.864Z,99.90
2018-11-28T10:44:21.132Z,99.90
2018-11-28T10:46:49.306Z,99.90
2018-11-28T10:49:17.525Z,99.90
2018-11-28T10:51:50.285Z,99.90
2018-11-28T10:54:13.993Z,99.90
2018-11-28T10:56:42.224Z,99.90
2018-11-28T10:59:10.426Z,99.90
2018-11-28T11:01:45.208Z,99.90
2018-11-28T11:04:14.475Z,99.90
2018-11-28T11:07:51.984Z,99.80
2018-11-28T11:10:25.680Z,99.70
2018-11-28T11:12:59.399Z,99.40
2018-11-28T11:15:27.600Z,99.40
2018-11-28T11:18:01.915Z,99.00
2018-11-28T11:20:24.076Z,98.90
2018-11-28T11:22:52.243Z,98.60
2018-11-28T11:25:20.639Z,98.40
2018-11-28T11:27:48.811Z,98.50
2018-11-28T11:30:17.060Z,98.80
2018-11-28T11:32:45.343Z,98.10
2018-11-28T11:35:13.504Z,98.00
2018-11-28T11:37:41.894Z,97.80
2018-11-28T11:40:12.009Z,97.50
2018-11-28T11:42:40.195Z,97.70
2018-11-28T11:45:12.845Z,97.50
2018-11-28T11:47:41.088Z,97.30
2018-11-28T11:50:15.738Z,97.20
2018-11-28T11:52:44.060Z,96.60
2018-11-28T11:55:14.444Z,96.30
2018-11-28T11:57:42.616Z,95.50
2018-11-28T12:00:14.631Z,95.60
2018-11-28T12:02:44.080Z,95.20
2018-11-28T12:05:12.222Z,95.00
2018-11-28T12:07:40.416Z,94.60
2018-11-28T12:10:11.658Z,94.50
2018-11-28T12:12:39.829Z,94.50
2018-11-28T12:15:11.387Z,94.20
2018-11-28T12:17:39.553Z,93.90
2018-11-28T12:20:12.768Z,93.80
2018-11-28T12:22:41.865Z,94.20
2018-11-28T12:25:10.032Z,93.50
2018-11-28T12:27:38.259Z,93.60
2018-11-28T12:30:09.633Z,93.30
2018-11-28T12:32:37.796Z,93.20
2018-11-28T12:35:08.123Z,93.30
2018-11-28T12:37:36.300Z,93.40
2018-11-28T12:40:07.045Z,93.40
2018-11-28T12:42:35.244Z,93.20
2018-11-28T12:45:03.520Z,93.00
2018-11-28T12:47:31.687Z,92.80
2018-11-28T12:49:59.832Z,92.70
2018-11-28T12:52:28.008Z,92.50
2018-11-28T12:54:56.325Z,92.80
2018-11-28T12:57:24.488Z,92.50
2018-11-28T12:59:52.645Z,92.40
2018-11-28T13:02:20.813Z,92.50
2018-11-28T13:04:48.975Z,92.30
2018-11-28T13:07:17.184Z,92.20
2018-11-28T13:09:45.331Z,94.30
2018-11-28T13:12:13.529Z,92.20
2018-11-28T13:14:41.700Z,92.00
2018-11-28T13:17:09.866Z,91.90
2018-11-28T13:19:38.112Z,92.20
2018-11-28T13:22:06.660Z,92.10
2018-11-28T13:24:34.821Z,92.10
2018-11-28T13:27:03.059Z,92.20
2018-11-28T13:29:31.213Z,92.40
2018-11-28T13:31:59.398Z,92.20
2018-11-28T13:34:28.787Z,92.30
2018-11-28T13:36:56.976Z,92.40
2018-11-28T13:39:25.140Z,92.40
2018-11-28T13:41:53.318Z,92.50
2018-11-28T13:44:22.054Z,92.50
2018-11-28T13:46:50.233Z,92.40
2018-11-28T13:49:18.535Z,92.80
2018-11-28T13:51:46.714Z,92.30
2018-11-28T13:54:21.284Z,92.50
2018-11-28T13:57:04.014Z,93.00
2018-11-28T13:59:13.135Z,93.60
2018-11-28T14:01:41.324Z,92.50
2018-11-28T14:04:09.488Z,92.50
2018-11-28T14:06:37.671Z,92.40
2018-11-28T14:09:07.580Z,92.70
2018-11-28T14:11:35.810Z,92.80
2018-11-28T14:14:03.968Z,92.90
2018-11-28T14:16:32.319Z,93.20
2018-11-28T14:19:00.511Z,93.80
2018-11-28T14:21:29.064Z,93.30
2018-11-28T14:24:00.612Z,93.40
2018-11-28T14:26:29.576Z,93.50
2018-11-28T14:28:57.728Z,93.70
2018-11-28T14:31:25.898Z,93.70
2018-11-28T14:33:54.060Z,93.90
2018-11-28T14:36:22.228Z,94.00
2018-11-28T14:38:50.398Z,94.20
2018-11-28T14:41:18.572Z,94.40
2018-11-28T14:43:46.740Z,94.50
2018-11-28T14:46:14.892Z,95.00
2018-11-28T14:48:43.044Z,94.80
2018-11-28T14:51:11.213Z,94.80
2018-11-28T14:53:39.380Z,95.00
2018-11-28T14:56:07.892Z,95.10
2018-11-28T14:58:36.091Z,95.20
2018-11-28T15:01:04.261Z,95.30
2018-11-28T15:03:32.413Z,95.60
2018-11-28T15:06:03.180Z,95.40
2018-11-28T15:08:32.099Z,95.40
2018-11-28T15:11:03.228Z,95.70
2018-11-28T15:13:31.382Z,95.70
2018-11-28T15:15:59.543Z,95.80
2018-11-28T15:18:27.727Z,95.90
2018-11-28T15:20:56.628Z,96.20
2018-11-28T15:23:24.794Z,95.90
2018-11-28T15:25:52.979Z,96.00
2018-11-28T15:28:21.180Z,96.10
2018-11-28T15:30:49.335Z,96.20
2018-11-28T15:33:17.507Z,96.10
2018-11-28T15:35:45.694Z,96.20
2018-11-28T15:38:13.936Z,96.30
2018-11-28T15:40:42.097Z,96.30
2018-11-28T15:43:10.996Z,96.50
2018-11-28T15:45:39.141Z,96.50
2018-11-28T15:48:07.447Z,96.60
2018-11-28T15:50:35.864Z,96.70
2018-11-28T15:53:04.685Z,96.80
2018-11-28T15:55:32.908Z,96.80
2018-11-28T15:58:01.106Z,96.90
2018-11-28T16:00:29.284Z,97.00
2018-11-28T16:02:57.588Z,97.00
2018-11-28T16:05:25.837Z,97.10
2018-11-28T16:07:54.096Z,97.10
2018-11-28T16:10:27.607Z,97.20
2018-11-28T16:12:55.868Z,97.30
2018-11-28T16:15:26.677Z,97.40
2018-11-28T16:17:54.939Z,97.40
2018-11-28T16:20:23.135Z,97.60
2018-11-28T16:22:51.346Z,97.50
2018-11-28T16:25:19.538Z,97.60
2018-11-28T16:27:47.784Z,97.70
2018-11-28T16:30:16.584Z,97.60
2018-11-28T16:32:45.529Z,97.60
2018-11-28T16:35:15.731Z,97.50
2018-11-28T16:37:44.006Z,97.50
2018-11-28T16:40:13.424Z,97.40
2018-11-28T16:42:41.620Z,97.60
2018-11-28T16:45:18.362Z,97.70
2018-11-28T16:47:46.868Z,97.70
2018-11-28T16:50:15.751Z,97.70
2018-11-28T16:52:44.014Z,97.70
2018-11-28T16:55:13.211Z,97.90
2018-11-28T16:57:46.424Z,97.90
2018-11-28T17:00:16.734Z,98.10
2018-11-28T17:02:44.926Z,98.10
2018-11-28T17:05:18.184Z,98.40
2018-11-28T17:07:46.479Z,98.30
2018-11-28T17:10:16.640Z,98.40
2018-11-28T17:12:46.127Z,98.50
2018-11-28T17:15:15.492Z,98.50
2018-11-28T17:17:43.853Z,98.50
2018-11-28T17:20:13.274Z,98.60
2018-11-28T17:22:41.465Z,98.70
2018-11-28T17:25:18.739Z,98.60
2018-11-28T17:27:46.921Z,98.60
2018-11-28T17:30:18.840Z,98.70
2018-11-28T17:32:44.567Z,98.60
2018-11-28T17:35:13.527Z,99.10
2018-11-28T17:37:41.717Z,98.70
2018-11-28T17:40:13.761Z,98.80
2018-11-28T17:42:42.412Z,98.80
2018-11-28T17:45:11.802Z,99.00
2018-11-28T17:47:40.049Z,99.20
2018-11-28T17:50:13.676Z,99.20
2018-11-28T17:52:43.375Z,99.30
2018-11-28T17:55:14.322Z,99.40
2018-11-28T17:57:42.540Z,99.40
2018-11-28T18:00:12.542Z,99.40
2018-11-28T18:02:41.779Z,99.30
2018-11-28T18:05:10.900Z,99.70
2018-11-28T18:07:40.116Z,99.40
2018-11-28T18:10:10.452Z,99.50
2018-11-28T18:12:40.352Z,99.50
2018-11-28T18:15:09.012Z,99.50
2018-11-28T18:17:37.236Z,99.40
2018-11-28T18:20:05.448Z,99.50
2018-11-28T18:22:33.659Z,99.80
2018-11-28T18:25:01.823Z,99.80
2018-11-28T18:27:30.013Z,99.80
2018-11-28T18:29:58.189Z,99.70
2018-11-28T18:32:26.399Z,99.80
2018-11-28T18:34:54.565Z,99.70
2018-11-28T18:37:24.377Z,99.80
2018-11-28T18:39:51.079Z,99.90
2018-11-28T18:42:20.032Z,99.90
2018-11-28T18:44:48.532Z,99.90
2018-11-28T18:47:16.973Z,99.90
2018-11-28T18:49:45.774Z,99.90
2018-11-28T18:52:14.266Z,99.90
2018-11-28T18:54:43.106Z,99.80
2018-11-28T18:57:11.853Z,99.80
2018-11-28T18:59:40.460Z,99.80
2018-11-28T19:02:09.313Z,99.80
2018-11-28T19:04:37.903Z,99.90
2018-11-28T19:07:06.454Z,99.90
2018-11-28T19:09:40.386Z,99.90
2018-11-28T19:12:08.716Z,99.90
2018-11-28T19:14:37.241Z,99.90
2018-11-28T19:17:06.653Z,99.90
2018-11-28T19:19:35.216Z,99.80
2018-11-28T19:22:04.003Z,99.90
2018-11-28T19:24:32.599Z,99.90
2018-11-28T19:27:01.201Z,99.90
2018-11-28T19:29:29.873Z,99.90
2018-11-28T19:31:58.507Z,99.80
2018-11-28T19:34:27.061Z,99.80
2018-11-28T19:36:55.298Z,99.80
2018-11-28T19:39:23.474Z,99.80
2018-11-28T19:41:51.708Z,99.90
2018-11-28T19:44:19.890Z,99.90
2018-11-28T19:46:48.132Z,99.90
2018-11-28T19:49:16.293Z,99.90
2018-11-28T19:51:44.516Z,99.90
2018-11-28T19:54:12.693Z,99.90
2018-11-28T19:56:40.859Z,99.90
2018-11-28T19:59:16.785Z,99.90
2018-11-28T20:01:46.804Z,99.90
2018-11-28T20:04:15.927Z,99.90
2018-11-28T20:06:45.611Z,99.90
2018-11-28T20:09:21.962Z,99.90
2018-11-28T20:11:59.142Z,99.90
2018-11-28T20:14:27.646Z,99.90
2018-11-28T20:17:16.613Z,99.90
2018-11-28T20:19:44.810Z,99.80
2018-11-28T20:22:13.028Z,99.80
2018-11-28T20:24:47.983Z,99.70
2018-11-28T20:27:16.195Z,99.60
2018-11-28T20:29:44.493Z,99.60
2018-11-28T20:32:31.054Z,99.60
2018-11-28T20:35:14.865Z,99.50
2018-11-28T20:37:59.587Z,99.40
2018-11-28T20:40:40.277Z,99.30
2018-11-28T20:46:13.251Z,99.10
2018-11-28T20:48:43.477Z,99.20
2018-11-28T20:51:26.476Z,99.30
2018-11-28T20:53:54.717Z,99.30
2018-11-28T20:56:37.059Z,99.50
2018-11-28T20:59:09.021Z,99.60
2018-11-28T21:01:51.744Z,99.70
2018-11-28T21:04:30.813Z,99.90
2018-11-28T21:07:02.644Z,99.90
2018-11-28T21:09:40.913Z,99.90
2018-11-28T21:15:14.067Z,99.90
2018-11-28T21:17:46.593Z,99.90
2018-11-28T21:20:26.417Z,99.90
2018-11-28T21:22:59.652Z,99.90
2018-11-28T21:25:27.811Z,99.90
2018-11-28T21:27:55.964Z,99.90
2018-11-28T21:30:24.153Z,99.90
2018-11-28T21:32:53.208Z,99.90
2018-11-28T21:35:24.632Z,99.90
2018-11-28T21:37:52.840Z,99.90
2018-11-28T21:40:21.036Z,99.90
2018-11-28T21:42:49.218Z,99.90
2018-11-28T21:45:18.499Z,99.90
2018-11-28T21:47:46.658Z,99.90
2018-11-28T21:50:15.750Z,99.90
2018-11-28T21:52:43.989Z,99.90
2018-11-28T21:55:13.351Z,99.90
2018-11-28T21:57:41.536Z,99.90
